Data for 07/09/2017

Time Sea-Level Adjusted Pressure Absolute Pressure Temperature Relative Humidity Dew Point   
(mb) (inHg) (mb) (inHg) (C) (F) (%) (C) (F)
00:05 1022 30.18 851 25.13 21.3 70.3 42 8.2 46.7
00:10 1022 30.18 852 25.16 21.1 70 41 7.4 45.2
00:15 1022 30.18 851 25.13 20.9 69.7 41 7.3 45.1
00:20 1022 30.18 851 25.13 20.7 69.2 42 7.6 45.7
00:25 1022 30.18 851 25.13 20.5 68.9 43 7.6 45.7
00:30 1022 30.18 851 25.13 20.5 68.8 45 8.3 46.9
00:35 1022 30.18 851 25.13 20.2 68.3 44 7.5 45.6
00:40 1022 30.18 851 25.13 20.1 68.1 43 7.3 45.2
00:45 1022 30.18 851 25.13 19.9 67.9 44 7.5 45.5
00:50 1022 30.18 851 25.13 19.7 67.4 45 7.6 45.7
00:55 1022 30.18 851 25.13 19.4 66.9 46 7.7 45.8
01:00 1022 30.18 851 25.13 19.2 66.5 47 7.6 45.7
01:05 1022 30.18 851 25.13 19.1 66.4 46 7.5 45.5
01:10 1022 30.18 851 25.13 19.3 66.7 44 6.9 44.4
01:15 1022 30.18 851 25.13 19.5 67.1 42 6.5 43.7
01:20 1022 30.18 851 25.13 19.7 67.5 42 6.7 44
01:25 1022 30.18 851 25.13 19.7 67.4 42 6.6 43.8
01:30 1022 30.18 851 25.13 19.5 67.2 42 6.5 43.6
01:35 1022 30.18 851 25.13 19.3 66.8 43 6.6 43.8
01:40 1022 30.18 851 25.13 19.4 67 43 6.8 44.2
01:45 1022 30.18 851 25.13 19.5 67.1 42 6.4 43.6
01:50 1022 30.18 851 25.13 19.6 67.3 44 7 44.7
01:55 1022 30.18 851 25.13 19.4 66.9 45 7.3 45.1
02:00 1022 30.18 851 25.13 19.4 67 43 6.8 44.3
02:05 1022 30.18 851 25.13 19.4 66.9 44 6.9 44.5
02:10 1022 30.18 851 25.13 19.3 66.8 44 7 44.5
02:15 1022 30.18 851 25.13 19.4 66.9 44 6.9 44.4
02:20 1022 30.18 851 25.13 19.2 66.5 46 7.3 45.1
02:25 1022 30.18 851 25.13 18.8 65.8 46 7.2 45
02:30 1022 30.18 851 25.13 19 66.1 46 7.1 44.7
02:35 1022 30.18 851 25.13 19.3 66.8 45 7.2 44.9
02:40 1022 30.18 851 25.13 19.5 67.2 44 7.1 44.8
02:45 1022 30.18 851 25.13 19.5 67.1 45 7.3 45.1
02:50 1022 30.18 851 25.13 19.4 66.9 44 7 44.6
02:55 1022 30.18 851 25.13 19.4 67 44 6.9 44.5
03:00 1022 30.18 851 25.13 19.3 66.7 43 6.7 44
03:05 1022 30.18 851 25.13 19.4 66.9 42 6.4 43.6
03:10 1022 30.18 851 25.13 19.4 66.9 41 6 42.9
03:15 1022 30.18 851 25.13 19.3 66.7 42 6.2 43.1
03:20 1022 30.18 851 25.13 19.1 66.4 41 5.8 42.5
03:25 1022 30.18 851 25.13 19.2 66.6 41 5.8 42.5
03:30 1022 30.18 851 25.13 19.1 66.4 45 7.1 44.7
03:35 1022 30.18 851 25.13 18.9 66 42 5.9 42.6
03:40 1022 30.18 851 25.13 18.9 66.1 43 6.2 43.2
03:45 1022 30.18 851 25.13 18.7 65.6 43 5.9 42.5
03:50 1022 30.18 851 25.13 18.9 66 42 5.7 42.3
03:55 1022 30.18 851 25.13 18.8 65.9 43 6 42.9
04:00 1021 30.15 851 25.13 18.6 65.5 44 6.2 43.1
04:05 1021 30.15 851 25.13 18.2 64.8 46 6.5 43.7
04:10 1021 30.15 851 25.13 17.9 64.2 46 6.3 43.3
04:15 1021 30.15 851 25.13 17.8 64 47 6.3 43.4
04:20 1021 30.15 851 25.13 17.7 63.9 46 6.1 43
04:25 1021 30.15 851 25.13 18.2 64.7 43 5.6 42.1
04:30 1021 30.15 851 25.13 18.9 65.9 42 5.9 42.7
04:35 1021 30.15 851 25.13 18.6 65.5 45 6.5 43.7
04:40 1021 30.15 851 25.13 18.2 64.7 45 6.2 43.2
04:45 1021 30.15 851 25.13 18.2 64.7 44 6 42.8
04:50 1021 30.15 851 25.13 18.2 64.7 45 6.1 43
04:55 1021 30.15 851 25.13 18.2 64.7 45 6.2 43.2
05:00 1022 30.18 851 25.13 18 64.5 46 6.3 43.4
05:05 1022 30.18 851 25.13 17.9 64.2 46 6.3 43.3
05:10 1022 30.18 851 25.13 18.1 64.6 45 6 42.7
05:15 1022 30.18 851 25.13 18.5 65.3 44 6 42.8
05:20 1022 30.18 851 25.13 18.7 65.6 43 6.1 42.9
05:25 1022 30.18 851 25.13 18.8 65.9 43 6 42.8
05:30 1022 30.18 851 25.13 19 66.1 42 6 42.9
05:35 1022 30.18 851 25.13 18.9 66 44 6.3 43.4
05:40 1022 30.18 851 25.13 18.8 65.9 44 6.4 43.5
05:45 1022 30.18 851 25.13 18.7 65.7 45 6.5 43.7
05:50 1022 30.18 851 25.13 18.6 65.5 45 6.6 44
05:55 1022 30.18 851 25.13 18.4 65.2 47 6.9 44.4
06:00 1022 30.18 851 25.13 18.1 64.6 49 7.3 45.2
06:05 1022 30.18 851 25.13 17.9 64.3 48 6.8 44.3
06:10 1022 30.18 851 25.13 18.3 65 46 6.6 43.8
06:15 1022 30.18 851 25.13 18.4 65.1 46 6.8 44.2
06:20 1022 30.18 851 25.13 19.2 66.5 42 6.2 43.2
06:25 1022 30.18 851 25.13 20 67.9 42 6.8 44.2
06:30 1022 30.18 851 25.13 20.1 68.2 42 6.8 44.3
06:35 1022 30.18 851 25.13 20.3 68.5 42 7.2 44.9
06:40 1022 30.18 851 25.13 20.4 68.7 44 7.8 46.1
06:45 1022 30.18 851 25.13 20.5 68.9 45 8.3 46.9
06:50 1022 30.18 851 25.13 20.6 69.1 45 8.4 47.1
06:55 1022 30.18 851 25.13 20.8 69.4 47 9.3 48.8
07:00 1022 30.18 851 25.13 21 69.9 45 8.9 48.1
07:05 1022 30.18 851 25.13 21.8 71.2 44 9.2 48.6
07:10 1022 30.18 851 25.13 22.3 72.2 41 8.8 47.8
07:15 1022 30.18 851 25.13 22.4 72.3 39 8.1 46.6
07:20 1022 30.18 851 25.13 22.7 72.9 40 8.5 47.3
07:25 1022 30.18 851 25.13 23.4 74.2 36 7.6 45.6
07:30 1022 30.18 851 25.13 23.9 75.1 35 7.8 46
07:35 1022 30.18 851 25.13 24.5 76.1 33 7.6 45.7
07:40 1022 30.18 851 25.13 24.7 76.4 34 8.2 46.7
07:45 1022 30.18 851 25.13 25.2 77.4 33 8 46.4
07:50 1022 30.18 851 25.13 25.5 78 33 8.1 46.6
07:55 1022 30.18 851 25.13 25.8 78.5 32 8.2 46.7
08:00 1022 30.18 851 25.13 26.2 79.2 33 8.7 47.7
08:05 1022 30.18 851 25.13 26.1 79 33 8.7 47.6
08:10 1022 30.18 851 25.13 25.1 77.2 34 8.5 47.3
08:15 1022 30.18 851 25.13 24.9 76.7 34 8.2 46.7
08:20 1022 30.18 851 25.13 25.6 78.1 33 8.3 46.9
08:25 1022 30.18 851 25.13 26.1 78.9 32 8.4 47.1
08:30 1022 30.18 851 25.13 25.7 78.2 34 8.7 47.7
08:35 1022 30.18 851 25.13 25.7 78.2 33 8.4 47.2
08:40 1022 30.18 851 25.13 26.1 79 32 8.3 46.9
08:45 1022 30.18 851 25.13 25.9 78.7 32 8.3 47
08:50 1022 30.18 851 25.13 25.1 77.3 33 8.2 46.7
08:55 1022 30.18 851 25.13 25.1 77.3 33 8.1 46.6
09:00 1022 30.18 851 25.13 25.5 77.8 32 7.8 46.1
09:05 1022 30.18 851 25.13 25.9 78.6 31 7.5 45.5
09:10 1022 30.18 851 25.13 26.4 79.4 31 8.2 46.7
09:15 1022 30.18 851 25.13 26.5 79.6 30 8 46.4
09:20 1021 30.15 851 25.13 27.5 81.4 28 7.7 45.9
09:25 1021 30.15 851 25.13 27.3 81.2 28 7.6 45.7
09:30 1021 30.15 851 25.13 28 82.4 27 7.6 45.7
09:35 1021 30.15 851 25.13 28.4 83 28 8.7 47.6
09:40 1021 30.15 850 25.1 28.8 83.8 27 8.2 46.7
09:45 1021 30.15 850 25.1 28.8 83.8 27 8.4 47.1
09:50 1021 30.15 850 25.1 28.6 83.5 28 8.6 47.5
09:55 1021 30.15 850 25.1 28.7 83.6 26 7.7 45.9
10:00 1021 30.15 850 25.1 29.6 85.3 26 8.2 46.8
10:05 1021 30.15 850 25.1 30.2 86.4 25 8.4 47.2
10:10 1021 30.15 850 25.1 30.6 87 25 8.4 47.1
10:15 1021 30.15 850 25.1 29.7 85.5 26 8.7 47.7
10:20 1021 30.15 850 25.1 29.2 84.5 26 8 46.5
10:25 1021 30.15 850 25.1 30.1 86.3 25 8.4 47.2
10:30 1021 30.15 850 25.1 30.9 87.7 24 8.3 47
10:35 1021 30.15 850 25.1 31.2 88.2 23 7.8 46.1
10:40 1021 30.15 850 25.1 31.6 88.9 22 8 46.4
10:45 1021 30.15 850 25.1 31.9 89.4 23 8.7 47.6
10:50 1021 30.15 850 25.1 31.9 89.4 22 7.8 46
10:55 1021 30.15 850 25.1 32.3 90.2 22 8.5 47.3
11:00 1021 30.15 850 25.1 32 89.6 23 8.9 48.1
11:05 1021 30.15 850 25.1 31.5 88.7 25 9.7 49.4
11:10 1021 30.15 850 25.1 30.5 86.8 25 8.8 47.8
11:15 1021 30.15 850 25.1 31.6 88.9 24 9.2 48.6
11:20 1021 30.15 850 25.1 32.3 90.2 22 8.4 47.2
11:25 1020 30.12 850 25.1 32 89.6 24 9 48.3
11:30 1020 30.12 850 25.1 31.5 88.6 24 9 48.1
11:35 1020 30.12 849 25.07 31.5 88.6 23 8.2 46.8
11:40 1020 30.12 849 25.07 32.2 89.9 23 8.6 47.5
11:45 1020 30.12 849 25.07 31.6 89 24 8.7 47.7
11:50 1020 30.12 849 25.07 31.8 89.2 22 7.9 46.2
11:55 1020 30.12 849 25.07 31.3 88.4 22 7.3 45.2
12:00 1020 30.12 849 25.07 31.5 88.6 22 7.5 45.5
12:05 1020 30.12 849 25.07 31.1 88 22 7.4 45.3
12:10 1020 30.12 850 25.1 30.7 87.2 25 8.9 48.1
12:15 1020 30.12 850 25.1 29.9 85.8 27 9.1 48.4
12:20 1020 30.12 850 25.1 29.6 85.2 30 10.3 50.5
12:25 1021 30.15 850 25.1 29 84.3 25 7.3 45.1
12:30 1021 30.15 850 25.1 28.4 83.1 28 8.2 46.7
12:35 1021 30.15 850 25.1 27.9 82.3 28 7.9 46.1
12:40 1021 30.15 850 25.1 27.5 81.6 29 8.4 47.1
12:45 1021 30.15 850 25.1 27.3 81.1 29 8 46.3
12:50 1021 30.15 850 25.1 26.5 79.8 34 9.7 49.4
12:55 1021 30.15 850 25.1 25.4 77.8 38 10.2 50.3
13:00 1021 30.15 850 25.1 24.8 76.6 37 9.4 49
13:05 1021 30.15 850 25.1 24.4 75.9 39 9.6 49.3
13:10 1021 30.15 850 25.1 24.2 75.6 36 8.6 47.4
13:15 1021 30.15 850 25.1 24.4 75.9 35 8.3 47
13:20 1021 30.15 850 25.1 24.5 76.1 36 8.5 47.4
13:25 1021 30.15 850 25.1 24.4 76 36 8.6 47.6
13:30 1021 30.15 851 25.13 24.8 76.6 37 9.2 48.5
13:35 1021 30.15 851 25.13 25 77 35 8.7 47.6
13:40 1021 30.15 851 25.13 24.7 76.4 37 9.4 48.9
13:45 1021 30.15 851 25.13 24.6 76.3 36 8.7 47.7
13:50 1021 30.15 851 25.13 25 77.1 35 8.8 47.9
13:55 1021 30.15 851 25.13 25.1 77.3 34 8.2 46.8
14:00 1021 30.15 850 25.1 25.2 77.4 33 7.8 46.1
14:05 1021 30.15 850 25.1 25.8 78.4 30 7.2 45
14:10 1021 30.15 850 25.1 26.7 80 27 6.5 43.7
14:15 1021 30.15 850 25.1 27.1 80.8 26 6.4 43.5
14:20 1021 30.15 850 25.1 27.8 82 25 6.4 43.5
14:25 1021 30.15 850 25.1 28.1 82.5 25 6.8 44.2
14:30 1021 30.15 850 25.1 28.1 82.6 24 5.8 42.4
14:35 1021 30.15 850 25.1 28.2 82.7 24 5.9 42.5
14:40 1021 30.15 850 25.1 28.4 83 24 6.4 43.5
14:45 1021 30.15 850 25.1 28.2 82.8 24 5.9 42.7
14:50 1021 30.15 850 25.1 28.1 82.5 25 6.3 43.3
14:55 1021 30.15 850 25.1 28.4 83.2 24 5.9 42.7
15:00 1021 30.15 850 25.1 28.5 83.2 25 6.7 44.1
15:05 1021 30.15 850 25.1 28.3 83 24 6.3 43.3
15:10 1021 30.15 850 25.1 28.6 83.4 25 6.7 44
15:15 1020 30.12 850 25.1 28.7 83.6 25 7 44.6
15:20 1020 30.12 849 25.07 28.8 83.8 26 7.5 45.5
15:25 1020 30.12 849 25.07 28.8 83.8 24 6.4 43.6
15:30 1020 30.12 849 25.07 28.7 83.6 23 6 42.8
15:35 1020 30.12 849 25.07 28.6 83.4 24 6.5 43.7
15:40 1020 30.12 849 25.07 28.5 83.3 25 6.9 44.5
15:45 1020 30.12 849 25.07 28.6 83.4 25 6.9 44.4
15:50 1020 30.12 849 25.07 28.6 83.5 28 8.8 47.9
15:55 1020 30.12 849 25.07 28.1 82.7 29 8.7 47.6
16:00 1020 30.12 849 25.07 28 82.3 30 9.3 48.8
16:05 1020 30.12 849 25.07 27.4 81.4 29 8.1 46.7
16:10 1020 30.12 849 25.07 27.5 81.6 29 8.2 46.8
16:15 1020 30.12 849 25.07 27.4 81.3 28 7.8 46
16:20 1020 30.12 849 25.07 27.4 81.2 28 7.4 45.2
16:25 1020 30.12 849 25.07 27.7 81.8 27 7.3 45.1
16:30 1020 30.12 849 25.07 27.9 82.2 28 7.8 46
16:35 1020 30.12 849 25.07 28.1 82.5 28 8.2 46.8
16:40 1020 30.12 849 25.07 28.6 83.4 27 8 46.4
16:45 1020 30.12 849 25.07 28.4 83.1 27 8.1 46.6
16:50 1020 30.12 849 25.07 28.2 82.8 26 7.2 44.9
16:55 1020 30.12 849 25.07 28.1 82.6 27 7.6 45.8
17:00 1020 30.12 849 25.07 28.2 82.7 26 7.4 45.3
17:05 1020 30.12 849 25.07 28.4 83.2 26 7.4 45.4
17:10 1020 30.12 849 25.07 28.5 83.3 25 7.1 44.8
17:15 1020 30.12 849 25.07 28.7 83.7 26 7.5 45.4
17:20 1020 30.12 849 25.07 28.7 83.7 25 7.2 45
17:25 1020 30.12 849 25.07 28.7 83.6 21 4.5 40.1
17:30 1020 30.12 849 25.07 28.3 83 20 3.8 38.9
17:35 1020 30.12 849 25.07 28.4 83.2 20 3.6 38.5
17:40 1020 30.12 849 25.07 28.4 83.2 20 3.9 39.1
17:45 1020 30.12 849 25.07 28.1 82.6 20 3.4 38.1
17:50 1020 30.12 849 25.07 27.9 82.3 20 3.4 38.1
17:55 1020 30.12 849 25.07 27.1 80.8 20 2.4 36.3
18:00 1020 30.12 849 25.07 26.8 80.2 19 1.5 34.6
18:05 1020 30.12 849 25.07 26.7 80.1 19 1.6 35
18:10 1020 30.12 849 25.07 26.8 80.2 19 1.8 35.2
18:15 1020 30.12 850 25.1 26.9 80.4 20 2.3 36.1
18:20 1021 30.15 850 25.1 26.9 80.4 23 4.1 39.4
18:25 1021 30.15 850 25.1 25.9 78.6 25 4.7 40.4
18:30 1021 30.15 850 25.1 25.4 77.7 28 5.6 42
18:35 1021 30.15 850 25.1 24.8 76.6 30 6.2 43.1
18:40 1021 30.15 850 25.1 24.4 75.8 29 5.6 42.1
18:45 1021 30.15 850 25.1 24.5 76.1 28 4.9 40.9
18:50 1021 30.15 850 25.1 24.7 76.5 26 4.3 39.8
18:55 1021 30.15 850 25.1 25 77 26 4.6 40.2
19:00 1021 30.15 850 25.1 24.6 76.3 29 5.5 41.9
19:05 1021 30.15 850 25.1 23.9 75 31 5.8 42.5
19:10 1021 30.15 850 25.1 23.8 74.8 31 5.7 42.3
19:15 1021 30.15 850 25.1 23.8 74.9 30 5.4 41.8
19:20 1020 30.12 850 25.1 23.9 75.1 28 4.7 40.4
19:25 1020 30.12 849 25.07 24.2 75.6 29 5.2 41.4
19:30 1020 30.12 849 25.07 24.1 75.5 29 5.3 41.5
19:35 1020 30.12 849 25.07 24.2 75.6 28 4.9 40.9
19:40 1020 30.12 849 25.07 24.3 75.7 28 4.8 40.7
19:45 1019 30.09 849 25.07 24.1 75.5 29 5.1 41.2
19:50 1019 30.09 849 25.07 23.9 75 30 5.3 41.5
19:55 1019 30.09 849 25.07 23.6 74.4 31 5.5 42
20:00 1020 30.12 849 25.07 23.4 74 30 4.9 40.9
20:05 1020 30.12 849 25.07 23.5 74.3 29 4.8 40.6
20:10 1020 30.12 849 25.07 23.5 74.4 29 4.6 40.3
20:15 1020 30.12 849 25.07 23.5 74.4 29 4.9 40.8
20:20 1020 30.12 849 25.07 23.4 74.1 30 4.8 40.7
20:25 1020 30.12 849 25.07 23.3 73.9 29 4.6 40.2
20:30 1020 30.12 849 25.07 23.5 74.3 28 4.2 39.6
20:35 1020 30.12 849 25.07 23.4 74.1 32 5.8 42.4
20:40 1020 30.12 849 25.07 22.8 73.1 33 5.8 42.4
20:45 1020 30.12 849 25.07 22.7 72.8 32 5.4 41.8
20:50 1020 30.12 849 25.07 22.8 73 32 5.4 41.7
20:55 1020 30.12 849 25.07 22.7 72.9 32 5.6 42
21:00 1020 30.12 849 25.07 22.6 72.7 32 5.2 41.3
21:05 1020 30.12 849 25.07 22.4 72.2 34 5.7 42.3
21:10 1020 30.12 850 25.1 22 71.6 33 5.1 41.3
21:15 1020 30.12 850 25.1 22.1 71.8 32 4.8 40.6
21:20 1021 30.15 850 25.1 22.3 72.1 33 5.3 41.6
21:25 1021 30.15 850 25.1 22 71.5 34 5.6 42.1
21:30 1021 30.15 850 25.1 22 71.5 36 6.3 43.4
21:35 1021 30.15 850 25.1 21.4 70.6 37 6.4 43.6
21:40 1020 30.12 850 25.1 21.2 70.2 38 6.5 43.6
21:45 1020 30.12 849 25.07 21.1 69.9 39 6.6 43.9
21:50 1020 30.12 849 25.07 20.9 69.7 39 6.5 43.7
21:55 1020 30.12 850 25.1 21 69.8 39 6.6 43.8
22:00 1020 30.12 850 25.1 20.7 69.3 41 7 44.6
22:05 1020 30.12 850 25.1 20.3 68.6 41 7 44.5
22:10 1020 30.12 850 25.1 20.1 68.2 42 6.8 44.2
22:15 1020 30.12 850 25.1 20 68 42 7 44.6
22:20 1020 30.12 850 25.1 19.9 67.7 42 6.8 44.3
22:25 1020 30.12 849 25.07 19.8 67.6 42 6.6 43.8
22:30 1020 30.12 850 25.1 19.8 67.6 42 6.8 44.3
22:35 1021 30.15 850 25.1 19.7 67.5 41 6.3 43.3
22:40 1021 30.15 850 25.1 20.2 68.3 40 6.2 43.1
22:45 1021 30.15 850 25.1 20.4 68.8 41 6.8 44.3
22:50 1021 30.15 850 25.1 20.2 68.4 42 7 44.7
22:55 1021 30.15 850 25.1 20.1 68.1 42 7.1 44.7
23:00 1021 30.15 850 25.1 19.8 67.7 39 5.7 42.2
23:05 1021 30.15 850 25.1 20.6 69.2 37 5.7 42.3
23:10 1021 30.15 850 25.1 21.2 70.2 34 4.9 40.8
23:15 1021 30.15 850 25.1 21.4 70.4 36 5.7 42.2
23:20 1021 30.15 851 25.13 20.9 69.6 38 6.2 43.2
23:25 1022 30.18 851 25.13 20.4 68.8 40 6.6 43.9
23:30 1022 30.18 851 25.13 20.1 68.1 41 6.5 43.7
23:35 1022 30.18 851 25.13 20.1 68.2 40 6.3 43.4
23:40 1022 30.18 851 25.13 20.3 68.6 40 6.5 43.7
23:45 1022 30.18 851 25.13 20.4 68.8 40 6.6 43.8
23:50 1022 30.18 851 25.13 20.2 68.4 41 6.6 43.8
23:55 1022 30.18 851 25.13 20 67.9 42 6.7 44.1
24:00 1022 30.18 851 25.13 20.7 69.2 36 5.4 41.7